Time;durP1;ratioP1;P1;durP2;ratioP2;P2;SDS_P1;SDS_P2;PMS_P1;PMS_P2;Temp;Humidity;BMP_temperature;BMP_pressure;BME280_temperature;BME280_humidity;BME280_pressure;Samples;Min_cycle;Max_cycle;Signal;HPM_P1;HPM_P2
2022/05/19 00:01:06;;;;;;;1.47;1.00;;;14.60;99.90;;;;;;5073537;28;20302;-69
2022/05/19 00:03:35;;;;;;;2.73;1.30;;;14.60;99.90;;;;;;5073598;28;20542;-69
2022/05/19 00:06:04;;;;;;;5.93;1.10;;;14.40;99.90;;;;;;5073443;28;20179;-69
2022/05/19 00:08:32;;;;;;;4.77;1.10;;;14.50;99.90;;;;;;5073669;28;20630;-69
2022/05/19 00:11:03;;;;;;;5.33;1.00;;;14.50;99.90;;;;;;5073334;28;20172;-69
2022/05/19 00:13:31;;;;;;;3.20;1.20;;;14.90;99.90;;;;;;5072149;28;20183;-69
2022/05/19 00:15:59;;;;;;;2.27;1.60;;;14.80;99.90;;;;;;5073349;28;20180;-68
2022/05/19 00:18:27;;;;;;;3.63;1.23;;;14.60;99.90;;;;;;5073473;28;20262;-69
2022/05/19 00:20:54;;;;;;;6.50;2.00;;;14.90;99.90;;;;;;5073206;28;20215;-68
2022/05/19 00:23:22;;;;;;;3.63;1.17;;;15.00;99.90;;;;;;5073458;28;20183;-68
2022/05/19 00:25:50;;;;;;;5.87;1.33;;;15.10;99.90;;;;;;5073111;28;20221;-68
2022/05/19 00:28:17;;;;;;;5.13;0.97;;;15.20;99.90;;;;;;5073333;28;20176;-68
2022/05/19 00:30:45;;;;;;;2.80;0.93;;;16.00;99.90;;;;;;5073074;28;20173;-69
2022/05/19 00:33:13;;;;;;;6.23;1.40;;;16.80;99.90;;;;;;5073308;28;20180;-69
2022/05/19 00:35:41;;;;;;;7.40;1.27;;;17.10;99.90;;;;;;5073065;28;20187;-69
2022/05/19 00:38:09;;;;;;;2.40;0.70;;;17.30;99.90;;;;;;5072981;28;20168;-69
2022/05/19 00:40:37;;;;;;;3.80;1.27;;;17.30;99.90;;;;;;5072893;28;20702;-68
2022/05/19 00:43:05;;;;;;;2.23;0.80;;;17.40;99.90;;;;;;5073148;28;20193;-68
2022/05/19 00:46:01;;;;;;;2.43;1.07;;;17.10;99.90;;;;;;5071604;28;20174;-68
2022/05/19 00:48:40;;;;;;;2.70;0.90;;;17.70;99.90;;;;;;5073293;28;20178;-67
2022/05/19 00:51:10;;;;;;;7.17;1.17;;;17.30;99.90;;;;;;5072989;28;20186;-68
2022/05/19 00:53:43;;;;;;;5.10;1.20;;;18.00;99.90;;;;;;5073052;28;20174;-69
2022/05/19 00:56:37;;;;;;;6.10;0.90;;;17.90;99.90;;;;;;5073081;28;20270;-68
2022/05/19 00:59:08;;;;;;;5.63;1.10;;;17.80;99.90;;;;;;5072129;28;20192;-68
2022/05/19 01:01:40;;;;;;;3.03;1.13;;;17.80;99.90;;;;;;5072694;28;20199;-69
2022/05/19 01:04:37;;;;;;;1.30;0.80;;;18.00;99.90;;;;;;5072849;28;20293;-69
2022/05/19 01:07:09;;;;;;;5.83;1.60;;;18.10;99.90;;;;;;5068238;28;20191;-69
2022/05/19 01:09:38;;;;;;;4.93;1.50;;;18.60;99.90;;;;;;5072887;28;20173;-70
2022/05/19 01:12:07;;;;;;;2.70;1.17;;;18.60;99.90;;;;;;5072721;28;20187;-69
2022/05/19 01:14:35;;;;;;;2.80;1.10;;;18.10;99.90;;;;;;5072693;28;20163;-69
2022/05/19 01:17:05;;;;;;;8.33;1.50;;;18.00;99.90;;;;;;5072556;28;20641;-69
2022/05/19 01:19:59;;;;;;;2.60;1.47;;;17.90;99.90;;;;;;5072553;28;20289;-69
2022/05/19 01:22:39;;;;;;;6.47;1.50;;;17.90;99.90;;;;;;5072347;28;20241;-69
2022/05/19 01:25:46;;;;;;;10.17;1.23;;;18.30;99.90;;;;;;5072899;28;20630;-69
2022/05/19 01:28:14;;;;;;;4.20;1.20;;;18.80;99.90;;;;;;5071253;28;20188;-68
2022/05/19 01:30:42;;;;;;;3.77;1.10;;;19.10;99.90;;;;;;5071236;28;20541;-69
2022/05/19 01:33:09;;;;;;;7.07;0.97;;;18.60;99.90;;;;;;5072548;28;20176;-69
2022/05/19 01:35:37;;;;;;;1.87;1.00;;;19.10;99.90;;;;;;5072629;28;20179;-70
2022/05/19 01:38:11;;;;;;;6.03;1.17;;;18.60;99.90;;;;;;5072548;28;20172;-69
2022/05/19 01:40:58;;;;;;;3.27;0.73;;;19.00;99.90;;;;;;5071369;28;20219;-69
2022/05/19 01:43:38;;;;;;;1.43;0.70;;;19.50;99.90;;;;;;5072644;28;20630;-69
2022/05/19 01:46:14;;;;;;;2.07;0.80;;;19.60;99.90;;;;;;5072608;28;20184;-67
2022/05/19 01:48:57;;;;;;;2.00;1.23;;;19.60;99.90;;;;;;5072496;28;20168;-68
2022/05/19 01:51:27;;;;;;;2.47;0.90;;;18.80;99.90;;;;;;5072442;28;20255;-69
2022/05/19 01:54:24;;;;;;;4.00;0.97;;;19.30;99.90;;;;;;5072763;28;20172;-68
2022/05/19 01:57:17;;;;;;;4.77;0.87;;;19.60;99.90;;;;;;5066325;28;20284;-68
2022/05/19 02:00:08;;;;;;;6.80;0.97;;;18.70;99.90;;;;;;5072201;28;20211;-68
2022/05/19 02:02:58;;;;;;;4.73;1.43;;;18.40;99.90;;;;;;5072273;28;20187;-68
2022/05/19 02:05:34;;;;;;;2.90;1.10;;;18.20;99.90;;;;;;5072588;28;20186;-69
2022/05/19 02:08:06;;;;;;;4.10;0.60;;;18.90;99.90;;;;;;5072049;28;20164;-68
2022/05/19 02:10:36;;;;;;;1.53;0.70;;;19.90;99.90;;;;;;5072850;28;20179;-69
2022/05/19 02:13:05;;;;;;;2.50;0.50;;;19.90;99.90;;;;;;5076023;28;20168;-69
2022/05/19 02:15:37;;;;;;;3.20;0.90;;;19.10;99.90;;;;;;5075756;28;20218;-68
2022/05/19 02:18:05;;;;;;;2.83;0.93;;;18.80;99.90;;;;;;5075558;28;20202;-68
2022/05/19 02:20:34;;;;;;;5.27;0.90;;;19.80;99.90;;;;;;5075940;28;20253;-68
2022/05/19 02:23:02;;;;;;;2.13;0.60;;;20.30;99.90;;;;;;5075654;28;20170;-69
2022/05/19 02:25:46;;;;;;;3.70;0.70;;;20.70;99.90;;;;;;5075827;28;20256;-70
2022/05/19 02:28:30;;;;;;;1.40;0.80;;;20.80;99.90;;;;;;5074329;28;20485;-69
2022/05/19 02:30:58;;;;;;;2.43;0.90;;;20.90;99.90;;;;;;5074216;28;20184;-69
2022/05/19 02:33:25;;;;;;;3.57;0.90;;;21.20;99.90;;;;;;5075564;28;20210;-69
2022/05/19 02:35:53;;;;;;;1.60;0.60;;;21.20;99.90;;;;;;5075520;28;20215;-68
2022/05/19 02:38:21;;;;;;;4.10;1.23;;;20.90;99.90;;;;;;5075263;28;20606;-69
2022/05/19 02:40:49;;;;;;;2.33;0.73;;;21.20;99.90;;;;;;5075467;28;20216;-68
2022/05/19 02:43:18;;;;;;;1.07;0.50;;;22.10;99.90;;;;;;5075226;28;20181;-69
2022/05/19 02:45:46;;;;;;;1.30;0.50;;;22.60;97.10;;;;;;5075269;28;20211;-69
2022/05/19 02:48:15;;;;;;;1.43;0.50;;;23.50;94.70;;;;;;5075262;28;20172;-69
2022/05/19 02:50:45;;;;;;;4.23;0.80;;;23.50;94.80;;;;;;5075201;28;20182;-69
2022/05/19 02:53:12;;;;;;;1.60;0.60;;;22.50;90.60;;;;;;5075218;28;20172;-69
2022/05/19 02:55:41;;;;;;;1.73;0.57;;;21.90;91.30;;;;;;5073880;28;20637;-69
2022/05/19 02:58:10;;;;;;;1.63;0.57;;;22.00;92.80;;;;;;5074866;28;20230;-69
2022/05/19 03:00:38;;;;;;;4.07;0.60;;;22.20;95.40;;;;;;5075433;28;20219;-69
2022/05/19 03:03:06;;;;;;;3.97;0.50;;;22.30;92.00;;;;;;5075150;28;20184;-68
2022/05/19 03:05:35;;;;;;;2.20;0.50;;;22.60;98.00;;;;;;5074890;28;20629;-69
2022/05/19 03:08:02;;;;;;;0.90;0.50;;;22.90;96.30;;;;;;5074798;28;20529;-68
2022/05/19 03:10:30;;;;;;;2.93;0.70;;;22.70;87.60;;;;;;5074580;28;20604;-69
2022/05/19 03:12:57;;;;;;;1.80;0.57;;;22.80;88.10;;;;;;5073503;28;20279;-69
2022/05/19 03:15:25;;;;;;;2.17;0.60;;;22.80;83.90;;;;;;5074776;28;20172;-68
2022/05/19 03:17:53;;;;;;;2.70;0.60;;;23.00;87.50;;;;;;5075007;28;20267;-68
2022/05/19 03:20:20;;;;;;;3.23;0.63;;;23.30;80.40;;;;;;5074505;28;20214;-68
2022/05/19 03:22:48;;;;;;;3.43;0.60;;;23.90;89.80;;;;;;5073828;28;20178;-69
2022/05/19 03:25:16;;;;;;;3.33;0.70;;;23.50;84.70;;;;;;5074505;28;20227;-68
2022/05/19 03:27:43;;;;;;;0.93;0.60;;;23.90;82.50;;;;;;5074500;28;20172;-68
2022/05/19 03:30:15;;;;;;;3.17;0.83;;;23.80;81.70;;;;;;5074010;28;20210;-69
2022/05/19 03:32:43;;;;;;;1.47;0.50;;;24.60;76.60;;;;;;5074420;28;20253;-68
2022/05/19 03:35:12;;;;;;;3.40;1.20;;;24.40;79.20;;;;;;5074104;28;20622;-69
2022/05/19 03:37:39;;;;;;;3.70;0.67;;;24.40;76.50;;;;;;5074176;28;20180;-68
2022/05/19 03:40:09;;;;;;;2.80;0.60;;;23.40;74.30;;;;;;5073929;28;20208;-68
2022/05/19 03:42:36;;;;;;;1.00;0.60;;;23.60;79.90;;;;;;5074262;28;20179;-69
2022/05/19 03:45:06;;;;;;;2.03;0.60;;;23.70;76.30;;;;;;5074203;28;20652;-68
2022/05/19 03:47:34;;;;;;;0.80;0.40;;;23.50;80.30;;;;;;5073993;28;20211;-68
2022/05/19 03:50:01;;;;;;;2.30;0.70;;;23.40;76.60;;;;;;5073792;28;20637;-68
2022/05/19 03:52:28;;;;;;;1.60;0.63;;;23.50;71.70;;;;;;5073947;28;20580;-69
2022/05/19 03:54:56;;;;;;;3.17;0.60;;;23.30;71.80;;;;;;5073876;28;20180;-69
2022/05/19 03:57:23;;;;;;;0.83;0.47;;;22.80;75.30;;;;;;5073435;28;20227;-69
2022/05/19 03:59:51;;;;;;;1.43;0.63;;;22.60;74.90;;;;;;5072334;28;20212;-69
2022/05/19 04:02:18;;;;;;;4.07;0.70;;;23.20;81.50;;;;;;5072277;28;20656;-69
2022/05/19 04:04:46;;;;;;;3.63;0.60;;;22.60;81.30;;;;;;5073977;28;20254;-69
2022/05/19 04:07:13;;;;;;;2.30;0.50;;;22.60;85.20;;;;;;5073606;28;20182;-69
2022/05/19 04:09:41;;;;;;;1.30;0.53;;;22.70;79.60;;;;;;5073756;28;20626;-70
2022/05/19 04:12:09;;;;;;;1.03;0.70;;;23.00;79.60;;;;;;5073664;28;20698;-70
2022/05/19 04:14:37;;;;;;;2.00;0.53;;;23.20;78.70;;;;;;5073681;28;20183;-69
2022/05/19 04:17:04;;;;;;;1.73;0.67;;;23.10;71.10;;;;;;5073157;28;20176;-69
2022/05/19 04:19:32;;;;;;;0.70;0.50;;;23.30;72.20;;;;;;5073417;28;20176;-69
2022/05/19 04:22:01;;;;;;;2.60;0.57;;;23.30;74.10;;;;;;5073208;28;20272;-69
2022/05/19 04:24:28;;;;;;;2.80;0.80;;;22.80;80.50;;;;;;5073537;28;20648;-69
2022/05/19 04:26:56;;;;;;;3.07;0.70;;;23.20;81.10;;;;;;5073282;28;20176;-69
2022/05/19 04:29:24;;;;;;;2.27;0.80;;;22.80;76.80;;;;;;5073357;28;20618;-69
2022/05/19 04:31:51;;;;;;;3.53;0.93;;;22.70;84.60;;;;;;5073192;28;20206;-70
2022/05/19 04:34:18;;;;;;;1.20;0.40;;;22.70;80.00;;;;;;5073205;28;20180;-69
2022/05/19 04:36:46;;;;;;;1.27;0.60;;;22.60;78.60;;;;;;5073310;28;20179;-69
2022/05/19 04:39:15;;;;;;;2.20;0.80;;;22.60;76.70;;;;;;5073296;28;20198;-69
2022/05/19 04:41:42;;;;;;;4.83;1.30;;;22.80;80.20;;;;;;5072932;28;20241;-68
2022/05/19 04:44:09;;;;;;;3.83;1.00;;;22.70;82.80;;;;;;5073039;28;20176;-69
2022/05/19 04:46:37;;;;;;;5.00;0.93;;;22.70;82.20;;;;;;5073124;28;20175;-70
2022/05/19 04:49:04;;;;;;;2.47;0.60;;;23.00;86.50;;;;;;5071908;28;20550;-68
2022/05/19 04:51:31;;;;;;;0.87;0.57;;;22.90;86.20;;;;;;5073061;28;20168;-69
2022/05/19 04:53:58;;;;;;;0.80;0.50;;;22.70;85.20;;;;;;5073205;28;20176;-69
2022/05/19 04:56:26;;;;;;;2.63;0.80;;;22.50;83.80;;;;;;5072566;28;20581;-68
2022/05/19 04:58:53;;;;;;;1.33;0.70;;;22.00;87.50;;;;;;5072916;28;20259;-69
2022/05/19 05:01:20;;;;;;;2.97;0.67;;;21.50;92.20;;;;;;5072877;28;20294;-68
2022/05/19 05:03:48;;;;;;;1.70;0.70;;;21.60;93.80;;;;;;5072979;28;20262;-69
2022/05/19 05:06:15;;;;;;;2.10;0.70;;;21.50;87.40;;;;;;5072915;28;20186;-69
2022/05/19 05:08:42;;;;;;;1.33;0.50;;;21.50;89.10;;;;;;5072949;28;20194;-69
2022/05/19 05:11:09;;;;;;;3.87;0.50;;;21.70;90.40;;;;;;5072858;28;20186;-68
2022/05/19 05:13:37;;;;;;;3.90;0.63;;;22.30;88.20;;;;;;5072816;28;20271;-69
2022/05/19 05:16:04;;;;;;;2.07;1.10;;;21.90;92.10;;;;;;5071402;28;20190;-69
2022/05/19 05:18:33;;;;;;;1.30;0.53;;;21.30;85.70;;;;;;5071407;28;20329;-70
2022/05/19 05:21:05;;;;;;;1.60;0.60;;;20.70;93.90;;;;;;5072518;28;20212;-69
2022/05/19 05:23:33;;;;;;;4.27;0.63;;;20.30;95.70;;;;;;5072686;28;20225;-69
2022/05/19 05:26:03;;;;;;;1.43;0.60;;;20.20;97.00;;;;;;5072664;28;20176;-69
2022/05/19 05:28:31;;;;;;;4.37;1.50;;;20.10;99.10;;;;;;5072653;28;20183;-69
2022/05/19 05:30:59;;;;;;;1.80;0.57;;;19.80;96.70;;;;;;5072697;28;20182;-68
2022/05/19 05:33:27;;;;;;;2.47;0.70;;;19.70;93.50;;;;;;5072780;28;20266;-69
2022/05/19 05:35:55;;;;;;;0.70;0.47;;;19.30;98.40;;;;;;5072491;28;20538;-70
2022/05/19 05:38:23;;;;;;;3.40;0.70;;;18.80;99.90;;;;;;5072486;28;20649;-70
2022/05/19 05:40:51;;;;;;;0.90;0.53;;;18.70;99.90;;;;;;5072421;28;20208;-71
2022/05/19 05:43:20;;;;;;;1.47;0.50;;;18.70;99.90;;;;;;5072595;28;20194;-69
2022/05/19 05:45:49;;;;;;;1.50;0.50;;;18.70;99.90;;;;;;5073379;28;20215;-70
2022/05/19 05:48:18;;;;;;;2.53;0.70;;;18.60;99.90;;;;;;5076320;28;20189;-70
2022/05/19 05:50:46;;;;;;;3.17;0.63;;;18.50;99.90;;;;;;5076231;28;20645;-69
2022/05/19 05:53:14;;;;;;;2.20;0.80;;;18.40;99.90;;;;;;5076220;28;20184;-69
2022/05/19 05:55:41;;;;;;;4.33;0.70;;;18.30;99.90;;;;;;5076053;28;20179;-69
2022/05/19 05:58:11;;;;;;;4.90;0.70;;;18.20;99.90;;;;;;5075835;28;20349;-70
2022/05/19 06:00:42;;;;;;;1.43;0.70;;;18.00;99.90;;;;;;5075735;28;20218;-69
2022/05/19 06:03:09;;;;;;;3.43;0.70;;;17.80;99.90;;;;;;5076017;28;20174;-70
2022/05/19 06:05:42;;;;;;;4.17;0.57;;;17.60;99.90;;;;;;5076114;28;20208;-70
2022/05/19 06:08:10;;;;;;;2.27;0.73;;;17.40;99.90;;;;;;5074496;28;20186;-70
2022/05/19 06:10:38;;;;;;;1.50;0.70;;;17.20;99.90;;;;;;5075775;28;20193;-70
2022/05/19 06:13:06;;;;;;;1.47;0.60;;;17.00;99.90;;;;;;5075941;28;20566;-70
2022/05/19 06:15:34;;;;;;;1.93;0.70;;;17.00;99.90;;;;;;5075503;28;20259;-68
2022/05/19 06:18:02;;;;;;;1.87;0.70;;;16.90;99.90;;;;;;5075769;28;20283;-68
2022/05/19 06:20:29;;;;;;;4.73;0.97;;;16.80;99.90;;;;;;5075327;28;20230;-69
2022/05/19 06:22:58;;;;;;;2.07;0.67;;;16.70;99.90;;;;;;5074356;28;20188;-69
2022/05/19 06:25:27;;;;;;;3.07;0.80;;;16.60;99.90;;;;;;5075634;28;20176;-69
2022/05/19 06:27:55;;;;;;;4.47;1.40;;;16.60;99.90;;;;;;5075678;28;20179;-69
2022/05/19 06:30:23;;;;;;;7.73;1.00;;;16.50;99.90;;;;;;5075413;28;20179;-69
2022/05/19 06:32:56;;;;;;;1.67;0.80;;;16.40;99.90;;;;;;5075848;28;20171;-69
2022/05/19 06:35:27;;;;;;;3.03;1.10;;;16.40;99.90;;;;;;5075518;28;20216;-69
2022/05/19 06:37:55;;;;;;;1.97;1.20;;;16.30;99.90;;;;;;5075422;28;20168;-69
2022/05/19 06:40:25;;;;;;;1.40;0.80;;;16.20;99.90;;;;;;5074072;28;20214;-69
2022/05/19 06:42:54;;;;;;;3.57;0.97;;;16.20;99.90;;;;;;5074049;28;20220;-69
2022/05/19 06:45:25;;;;;;;2.13;0.83;;;16.00;99.90;;;;;;5075176;28;20184;-69
2022/05/19 06:47:53;;;;;;;3.57;1.03;;;15.80;99.90;;;;;;5075263;28;20180;-69
2022/05/19 06:50:23;;;;;;;6.47;1.40;;;15.80;99.90;;;;;;5075103;28;20177;-69
2022/05/19 06:53:03;;;;;;;2.07;0.77;;;15.70;99.90;;;;;;5075211;28;20184;-69
2022/05/19 06:55:35;;;;;;;3.20;1.10;;;15.60;99.90;;;;;;5074883;28;20187;-69
2022/05/19 06:58:05;;;;;;;3.90;1.07;;;15.50;99.90;;;;;;5073689;28;20229;-69
2022/05/19 07:00:34;;;;;;;6.00;1.30;;;15.30;99.90;;;;;;5074757;28;20208;-69
2022/05/19 07:03:03;;;;;;;4.83;1.20;;;15.10;99.90;;;;;;5075076;28;20186;-69
2022/05/19 07:05:35;;;;;;;2.07;0.90;;;14.90;99.90;;;;;;5074756;28;20698;-69
2022/05/19 07:08:03;;;;;;;2.23;0.80;;;14.70;99.90;;;;;;5074807;28;20200;-69
2022/05/19 07:10:30;;;;;;;5.07;1.40;;;14.50;99.90;;;;;;5074528;28;20175;-70
2022/05/19 07:12:59;;;;;;;5.20;1.40;;;14.40;99.90;;;;;;5074826;28;20222;-69
2022/05/19 07:15:28;;;;;;;1.93;1.03;;;14.30;99.90;;;;;;5074408;28;20623;-69
2022/05/19 07:17:55;;;;;;;1.87;1.13;;;14.20;99.90;;;;;;5074620;28;20168;-70
2022/05/19 07:23:10;;;;;;;3.50;1.10;;;14.00;99.90;;;;;;5074667;28;20175;-70
2022/05/19 07:25:39;;;;;;;1.83;1.07;;;13.80;99.90;;;;;;5073248;28;20189;-69
2022/05/19 07:28:07;;;;;;;6.17;1.40;;;13.60;99.90;;;;;;5074427;28;20172;-70
2022/05/19 07:30:35;;;;;;;2.60;1.40;;;13.50;99.90;;;;;;5074214;28;20183;-68
2022/05/19 07:33:04;;;;;;;3.37;1.43;;;13.40;99.90;;;;;;5074371;28;20233;-69
2022/05/19 07:35:31;;;;;;;2.50;1.23;;;13.30;99.90;;;;;;5074174;28;20200;-68
2022/05/19 07:37:59;;;;;;;2.23;1.30;;;13.20;99.90;;;;;;5074267;28;20186;-69
2022/05/19 07:40:27;;;;;;;4.27;1.30;;;13.10;99.90;;;;;;5074101;28;20300;-68
2022/05/19 07:43:35;;;;;;;3.90;1.60;;;13.10;99.90;;;;;;5074228;28;20213;-70
2022/05/19 07:45:42;;;;;;;7.20;1.50;;;13.00;99.90;;;;;;5074042;28;20517;-69
2022/05/19 07:48:10;;;;;;;6.50;1.57;;;12.80;99.90;;;;;;5073997;28;20622;-70
2022/05/19 07:50:39;;;;;;;4.07;1.20;;;12.70;99.90;;;;;;5074057;28;20403;-70
2022/05/19 07:53:07;;;;;;;4.00;1.67;;;12.70;99.90;;;;;;5074048;28;20648;-69
2022/05/19 07:55:36;;;;;;;5.70;2.17;;;12.70;99.90;;;;;;5073861;28;20278;-69
2022/05/19 07:58:04;;;;;;;8.60;1.83;;;12.60;99.90;;;;;;5073689;28;20314;-70
2022/05/19 08:00:32;;;;;;;3.33;1.63;;;12.50;99.90;;;;;;5073655;28;20214;-69
2022/05/19 08:03:00;;;;;;;3.43;1.60;;;12.40;99.90;;;;;;5073719;28;20530;-69
2022/05/19 08:05:27;;;;;;;4.20;2.00;;;12.40;99.90;;;;;;5073754;28;20662;-69
2022/05/19 08:07:55;;;;;;;4.10;1.80;;;12.30;99.90;;;;;;5073670;28;20186;-69
2022/05/19 08:10:25;;;;;;;3.90;1.80;;;12.30;99.90;;;;;;5073242;28;20194;-69
2022/05/19 08:15:42;;;;;;;5.20;1.90;;;12.10;99.90;;;;;;5073719;28;20185;-69
2022/05/19 08:18:16;;;;;;;4.00;1.90;;;12.00;99.90;;;;;;5072356;28;20245;-69
2022/05/19 08:20:48;;;;;;;7.97;2.30;;;12.00;99.90;;;;;;5073389;28;20627;-70
2022/05/19 08:23:21;;;;;;;4.03;1.67;;;11.90;99.90;;;;;;5073505;28;20567;-69
2022/05/19 08:25:49;;;;;;;4.67;2.33;;;11.80;99.90;;;;;;5073591;28;20229;-69
2022/05/19 08:28:18;;;;;;;4.47;1.90;;;11.80;99.90;;;;;;5073324;28;20174;-69
2022/05/19 08:30:49;;;;;;;9.37;2.10;;;11.70;99.90;;;;;;5073317;28;20183;-68
2022/05/19 08:33:18;;;;;;;6.33;2.30;;;11.60;99.90;;;;;;5073450;28;20206;-69
2022/05/19 08:35:47;;;;;;;7.23;2.70;;;11.50;99.90;;;;;;5073198;28;20168;-68
2022/05/19 08:38:14;;;;;;;5.10;2.50;;;11.50;99.90;;;;;;5073263;28;20183;-68
2022/05/19 08:40:50;;;;;;;7.47;3.07;;;11.40;99.90;;;;;;5071746;28;20214;-68
2022/05/19 08:43:21;;;;;;;4.87;3.20;;;11.30;99.90;;;;;;5073215;28;20190;-67
2022/05/19 08:45:55;;;;;;;9.47;3.33;;;11.30;99.90;;;;;;5073289;28;20232;-68
2022/05/19 08:48:26;;;;;;;7.37;3.47;;;11.30;99.90;;;;;;5073302;28;20181;-68
2022/05/19 08:51:04;;;;;;;10.43;4.37;;;11.20;99.90;;;;;;5071959;28;20192;-68
2022/05/19 08:53:35;;;;;;;10.90;3.70;;;11.20;99.90;;;;;;5071974;28;20194;-68
2022/05/19 08:56:22;;;;;;;7.67;3.93;;;11.10;99.90;;;;;;5072970;28;20674;-69
2022/05/19 08:59:02;;;;;;;8.90;4.37;;;11.10;99.90;;;;;;5073106;28;20298;-69
2022/05/19 09:02:13;;;;;;;12.30;4.63;;;11.00;99.90;;;;;;5073122;28;20220;-69
2022/05/19 09:05:27;;;;;;;9.80;4.37;;;11.00;99.90;;;;;;5073299;28;20506;-68
2022/05/19 09:07:58;;;;;;;7.97;3.53;;;10.90;99.90;;;;;;5073232;28;20261;-68
2022/05/19 09:10:49;;;;;;;9.03;4.47;;;10.90;99.90;;;;;;5073043;28;20173;-68
2022/05/19 09:13:35;;;;;;;10.13;4.53;;;10.90;99.90;;;;;;5073029;28;20703;-69
2022/05/19 09:16:19;;;;;;;7.30;4.70;;;10.90;99.90;;;;;;5071734;28;20216;-69
2022/05/19 09:19:09;;;;;;;8.03;4.40;;;10.80;99.90;;;;;;5072010;28;20236;-68
2022/05/19 09:21:39;;;;;;;8.20;4.63;;;10.80;99.90;;;;;;5073821;28;20596;-69
2022/05/19 09:24:24;;;;;;;7.73;3.87;;;10.70;99.90;;;;;;5077113;28;20656;-69
2022/05/19 09:26:57;;;;;;;8.03;4.60;;;10.60;99.90;;;;;;5076756;28;20172;-69
2022/05/19 09:29:33;;;;;;;11.23;5.40;;;10.60;99.90;;;;;;5076734;28;20697;-68
2022/05/19 09:32:19;;;;;;;14.70;6.17;;;10.60;99.90;;;;;;5076684;28;20177;-69
2022/05/19 09:34:52;;;;;;;10.30;5.80;;;10.50;99.90;;;;;;5076811;28;20173;-68
2022/05/19 09:37:35;;;;;;;12.83;5.97;;;10.50;99.90;;;;;;5076425;28;20198;-68
2022/05/19 09:40:25;;;;;;;13.87;6.47;;;10.50;99.90;;;;;;5076442;28;20224;-68
2022/05/19 09:43:09;;;;;;;12.43;6.03;;;10.50;99.90;;;;;;5076485;28;20182;-69
2022/05/19 09:45:48;;;;;;;8.07;5.20;;;10.40;99.90;;;;;;5076572;28;20698;-68
2022/05/19 09:48:20;;;;;;;10.00;5.57;;;10.40;99.90;;;;;;5075179;28;20178;-68
2022/05/19 09:50:53;;;;;;;13.77;5.90;;;10.40;99.90;;;;;;5076363;28;20177;-68
2022/05/19 09:53:29;;;;;;;8.97;5.80;;;10.40;99.90;;;;;;5075023;28;20640;-68
2022/05/19 09:56:03;;;;;;;13.40;6.93;;;10.40;99.90;;;;;;5076246;28;20174;-69
2022/05/19 09:58:33;;;;;;;11.50;5.73;;;10.40;99.90;;;;;;5076004;28;20230;-69
2022/05/19 10:01:15;;;;;;;9.77;6.50;;;10.30;99.90;;;;;;5076091;28;20219;-69
2022/05/19 10:03:58;;;;;;;12.37;6.97;;;10.30;99.90;;;;;;5074935;28;20182;-69
2022/05/19 10:06:51;;;;;;;11.70;6.77;;;10.30;99.90;;;;;;5076464;28;20179;-69
2022/05/19 10:09:23;;;;;;;13.53;7.10;;;10.30;99.90;;;;;;5076197;28;20265;-68
2022/05/19 10:12:01;;;;;;;15.87;7.60;;;10.20;99.90;;;;;;5076284;28;20303;-68
2022/05/19 10:14:31;;;;;;;13.80;7.40;;;10.20;99.90;;;;;;5076142;28;20174;-69
2022/05/19 10:17:21;;;;;;;14.40;7.33;;;10.20;99.90;;;;;;5075760;28;20641;-68
2022/05/19 10:20:14;;;;;;;14.07;7.17;;;10.10;99.90;;;;;;5075913;28;20205;-68
2022/05/19 10:22:47;;;;;;;18.33;8.63;;;10.10;99.90;;;;;;5080676;28;20628;-68
2022/05/19 10:25:32;;;;;;;12.40;7.73;;;10.00;99.90;;;;;;5075962;28;20202;-68
2022/05/19 10:31:18;;;;;;;10.57;7.77;;;10.00;99.90;;;;;;5076005;28;20549;-69
2022/05/19 10:34:20;;;;;;;13.73;7.47;;;9.90;99.90;;;;;;5075704;28;20195;-69
2022/05/19 10:36:50;;;;;;;12.20;7.63;;;9.90;99.90;;;;;;5069769;28;20195;-68
2022/05/19 10:39:32;;;;;;;13.47;7.90;;;9.90;99.90;;;;;;5075919;28;20268;-68
2022/05/19 10:42:25;;;;;;;13.27;7.80;;;9.80;99.90;;;;;;5075458;28;20272;-69
2022/05/19 10:44:58;;;;;;;12.43;6.23;;;9.80;99.90;;;;;;5075504;28;20264;-68
2022/05/19 10:47:47;;;;;;;10.67;6.23;;;9.70;99.90;;;;;;5073960;28;20306;-69
2022/05/19 10:50:32;;;;;;;13.10;6.27;;;9.70;99.90;;;;;;5075570;28;20190;-69
2022/05/19 10:53:54;;;;;;;9.73;5.03;;;9.60;99.90;;;;;;5075302;28;20631;-68
2022/05/19 10:56:44;;;;;;;10.13;5.13;;;9.60;99.90;;;;;;5033219;28;20186;-69
2022/05/19 10:59:42;;;;;;;10.97;5.63;;;9.50;99.90;;;;;;5032906;28;20199;-69
2022/05/19 11:02:28;;;;;;;9.53;5.03;;;9.50;99.90;;;;;;5073668;28;20266;-69
2022/05/19 11:05:01;;;;;;;11.20;5.17;;;9.50;99.90;;;;;;5075147;28;20170;-70
2022/05/19 11:07:52;;;;;;;7.93;4.80;;;9.50;99.90;;;;;;5075022;28;20436;-69
2022/05/19 11:10:44;;;;;;;11.47;6.23;;;9.40;99.90;;;;;;5074775;28;20200;-70
2022/05/19 11:13:23;;;;;;;9.03;5.07;;;9.30;99.90;;;;;;5075109;28;20196;-69
2022/05/19 11:16:20;;;;;;;12.73;5.63;;;9.30;99.90;;;;;;5074735;28;20189;-69
2022/05/19 11:19:02;;;;;;;9.83;4.70;;;9.30;99.90;;;;;;5074706;28;20234;-69
2022/05/19 11:21:53;;;;;;;8.57;3.77;;;9.20;99.90;;;;;;5074619;28;20217;-69
2022/05/19 11:24:28;;;;;;;7.33;3.60;;;9.30;99.90;;;;;;5074679;28;20198;-69
2022/05/19 11:27:19;;;;;;;10.33;4.77;;;9.20;99.90;;;;;;5074727;28;20169;-70
2022/05/19 11:29:57;;;;;;;6.80;4.00;;;9.20;99.90;;;;;;5074620;28;20181;-70
2022/05/19 11:32:35;;;;;;;6.30;3.40;;;9.10;99.90;;;;;;5074560;28;20768;-70
2022/05/19 11:35:05;;;;;;;7.37;3.93;;;9.10;99.90;;;;;;5074611;28;20172;-70
2022/05/19 11:38:02;;;;;;;5.30;3.33;;;9.10;99.90;;;;;;5074528;28;20180;-70
2022/05/19 11:40:35;;;;;;;7.70;4.10;;;9.10;99.90;;;;;;5070965;28;20224;-70
2022/05/19 11:43:41;;;;;;;6.77;3.47;;;9.10;99.90;;;;;;5072585;28;20193;-69
2022/05/19 11:46:23;;;;;;;5.40;3.17;;;9.10;99.90;;;;;;5053098;28;20655;-69
2022/05/19 11:55:31;;;;;;;9.10;3.50;;;9.10;99.90;;;;;;5073989;28;20620;-69
2022/05/19 11:58:22;;;;;;;5.23;2.70;;;9.10;99.90;;;;;;5073938;28;20772;-69
2022/05/19 12:00:55;;;;;;;6.17;2.67;;;9.10;99.90;;;;;;5074308;28;20241;-69
2022/05/19 12:03:43;;;;;;;5.90;2.73;;;9.10;99.90;;;;;;5074287;28;20166;-69
2022/05/19 12:06:12;;;;;;;5.67;3.33;;;9.10;99.90;;;;;;5073907;28;20546;-69
2022/05/19 12:08:57;;;;;;;3.67;2.67;;;9.10;99.90;;;;;;5074051;28;20592;-69
2022/05/19 12:11:37;;;;;;;6.07;2.77;;;9.00;99.90;;;;;;5073966;28;20174;-69
2022/05/19 12:14:19;;;;;;;5.27;3.07;;;9.10;99.90;;;;;;5073889;28;20202;-70
2022/05/19 12:17:00;;;;;;;8.03;3.30;;;9.10;99.90;;;;;;5073600;28;20187;-70
2022/05/19 12:19:38;;;;;;;7.70;2.93;;;9.00;99.90;;;;;;5073479;28;20541;-69
2022/05/19 12:22:06;;;;;;;4.40;3.00;;;9.10;99.90;;;;;;5073679;28;20222;-69
2022/05/19 12:24:38;;;;;;;5.23;3.27;;;9.10;99.90;;;;;;5073573;28;20190;-68
2022/05/19 12:27:18;;;;;;;3.33;2.80;;;9.20;99.90;;;;;;5073614;28;20176;-68
2022/05/19 12:33:25;;;;;;;5.37;2.90;;;9.50;99.90;;;;;;5041936;28;20184;-68
2022/05/19 12:36:13;;;;;;;4.93;2.97;;;9.60;99.90;;;;;;5073245;28;20169;-68
2022/05/19 12:38:43;;;;;;;5.40;2.90;;;9.70;99.90;;;;;;5073494;28;20178;-68
2022/05/19 12:41:36;;;;;;;5.40;2.17;;;9.80;99.90;;;;;;5071906;28;20306;-68
2022/05/19 12:44:41;;;;;;;5.03;2.60;;;10.00;99.90;;;;;;5054847;28;20199;-68
2022/05/19 12:47:24;;;;;;;6.27;2.33;;;10.30;99.90;;;;;;5073229;28;20643;-68
2022/05/19 12:50:08;;;;;;;5.47;2.50;;;10.40;99.90;;;;;;5073141;28;20175;-68
2022/05/19 12:53:19;;;;;;;5.13;2.30;;;10.50;99.90;;;;;;5073420;28;20666;-69
2022/05/19 12:55:58;;;;;;;4.17;1.70;;;10.40;99.90;;;;;;5056921;28;20213;-68
2022/05/19 12:58:35;;;;;;;3.13;2.10;;;10.30;99.90;;;;;;5073017;28;20224;-68
2022/05/19 13:01:36;;;;;;;3.97;2.10;;;10.10;99.90;;;;;;5072987;28;20217;-68
2022/05/19 13:04:24;;;;;;;5.97;2.17;;;10.00;99.90;;;;;;5073127;28;20176;-68
2022/05/19 13:07:20;;;;;;;5.83;2.10;;;9.90;99.90;;;;;;5073521;28;20201;-68
2022/05/19 13:10:15;;;;;;;4.47;2.27;;;9.80;99.90;;;;;;5067094;28;20195;-68
2022/05/19 13:12:55;;;;;;;2.67;1.77;;;9.70;99.90;;;;;;5073059;28;20669;-68
2022/05/19 13:15:28;;;;;;;3.20;2.33;;;9.70;99.90;;;;;;5073236;28;20173;-68
2022/05/19 13:17:58;;;;;;;4.57;2.03;;;9.90;99.90;;;;;;5073020;28;20180;-68
2022/05/19 13:20:34;;;;;;;4.93;2.50;;;9.90;99.90;;;;;;5072802;28;20269;-68
2022/05/19 13:23:05;;;;;;;5.27;2.10;;;9.90;99.90;;;;;;5071731;28;20184;-69
2022/05/19 13:25:41;;;;;;;4.90;2.10;;;9.80;99.90;;;;;;5071559;28;20184;-68
2022/05/19 13:31:16;;;;;;;2.67;1.80;;;9.80;99.90;;;;;;5073094;28;20544;-69
2022/05/19 13:33:44;;;;;;;4.37;2.20;;;9.80;99.90;;;;;;5073132;28;20168;-69
2022/05/19 13:36:13;;;;;;;5.00;2.37;;;9.70;99.90;;;;;;5072742;28;20177;-69
2022/05/19 13:38:41;;;;;;;3.73;1.97;;;9.80;99.90;;;;;;5072953;28;20177;-69
2022/05/19 13:41:13;;;;;;;3.67;1.60;;;9.70;99.90;;;;;;5072558;28;20213;-69
2022/05/19 13:43:50;;;;;;;4.97;2.23;;;9.80;99.90;;;;;;5072789;28;20694;-69
2022/05/19 13:46:20;;;;;;;4.57;2.03;;;9.70;99.90;;;;;;5072864;28;20649;-69